Time;durP1;ratioP1;P1;durP2;ratioP2;P2;SDS_P1;SDS_P2;PMS_P1;PMS_P2;Temp;Humidity;BMP_temperature;BMP_pressure;BME280_temperature;BME280_humidity;BME280_pressure;Samples;Min_cycle;Max_cycle;Signal;HPM_P1;HPM_P2
2023/03/05 00:01:24;;;;;;;8.77;3.95;;;3.90;1.00;;;;;;5077925;28;20226;-83
2023/03/05 00:03:52;;;;;;;7.97;4.32;;;4.00;1.00;;;;;;5077946;28;20200;-83
2023/03/05 00:06:19;;;;;;;9.27;4.03;;;4.20;1.00;;;;;;5071244;28;20228;-83
2023/03/05 00:08:46;;;;;;;14.98;3.15;;;3.90;99.90;;;;;;5070199;28;20229;-83
2023/03/05 00:11:13;;;;;;;11.00;3.80;;;4.30;1.00;;;;;;5073437;28;20682;-81
2023/03/05 00:13:40;;;;;;;14.20;4.30;;;3.80;7.00;;;;;;5076914;28;20222;-82
2023/03/05 00:16:09;;;;;;;8.60;3.25;;;3.80;1.00;;;;;;5072313;28;20268;-83
2023/03/05 00:18:38;;;;;;;14.57;4.78;;;3.50;40.20;;;;;;5075521;28;20216;-82
2023/03/05 00:21:06;;;;;;;15.45;4.07;;;3.60;1.00;;;;;;5074781;28;20238;-83
2023/03/05 00:23:33;;;;;;;18.40;4.25;;;3.40;1.00;;;;;;5068569;28;20208;-82
2023/03/05 00:26:02;;;;;;;12.43;3.75;;;3.20;99.90;;;;;;5076675;28;20199;-82
2023/03/05 00:28:29;;;;;;;9.27;4.65;;;3.50;1.00;;;;;;5078463;28;20214;-82
2023/03/05 00:31:00;;;;;;;18.23;4.13;;;3.10;99.90;;;;;;5077363;28;20184;-82
2023/03/05 00:33:27;;;;;;;21.65;4.50;;;2.80;1.00;;;;;;5077737;28;20192;-82
2023/03/05 00:35:55;;;;;;;12.27;3.85;;;3.00;1.00;;;;;;5076889;28;20261;-82
2023/03/05 00:38:23;;;;;;;10.50;3.88;;;2.00;1.00;;;;;;5076797;28;20215;-82
2023/03/05 00:40:51;;;;;;;11.98;3.80;;;3.20;1.00;;;;;;5073647;28;20311;-83
2023/03/05 00:43:18;;;;;;;9.15;3.53;;;2.80;1.00;;;;;;5070100;28;20203;-82
2023/03/05 00:45:44;;;;;;;14.23;3.35;;;2.80;1.00;;;;;;5069310;28;20223;-82
2023/03/05 00:48:11;;;;;;;12.10;4.03;;;2.80;1.00;;;;;;5069384;28;20288;-82
2023/03/05 00:50:38;;;;;;;9.15;4.28;;;2.80;1.00;;;;;;5070083;28;20811;-83
2023/03/05 00:53:07;;;;;;;15.07;3.60;;;2.70;1.00;;;;;;5068316;28;20204;-82
2023/03/05 00:55:34;;;;;;;17.35;4.05;;;2.70;1.00;;;;;;5068848;28;20234;-82
2023/03/05 00:58:01;;;;;;;13.20;3.25;;;4.10;1.00;;;;;;5069911;28;20227;-82
2023/03/05 01:00:28;;;;;;;16.08;3.05;;;2.70;1.00;;;;;;5068528;28;20228;-82
2023/03/05 01:02:55;;;;;;;11.63;4.00;;;5.40;1.00;;;;;;5069742;28;20199;-82
2023/03/05 01:05:22;;;;;;;19.38;5.15;;;3.00;1.00;;;;;;5070066;28;20561;-82
2023/03/05 01:07:52;;;;;;;7.13;3.10;;;3.00;99.90;;;;;;5069784;28;20299;-82
2023/03/05 01:10:22;;;;;;;6.22;3.00;;;2.70;99.90;;;;;;5070907;28;20254;-84
2023/03/05 01:12:49;;;;;;;9.30;3.47;;;3.00;1.00;;;;;;5070257;28;20212;-82
2023/03/05 01:15:16;;;;;;;8.18;3.25;;;2.70;1.00;;;;;;5069524;28;20199;-82
2023/03/05 01:17:46;;;;;;;10.73;3.20;;;2.80;99.90;;;;;;5069097;28;20242;-82
2023/03/05 01:20:14;;;;;;;5.90;3.15;;;2.70;1.00;;;;;;5069478;28;20224;-82
2023/03/05 01:22:41;;;;;;;3.75;2.45;;;2.70;99.90;;;;;;5074090;28;20187;-83
2023/03/05 01:25:09;;;;;;;14.18;3.47;;;3.30;99.90;;;;;;5078157;28;20246;-82
2023/03/05 01:27:38;;;;;;;8.45;3.47;;;2.80;1.00;;;;;;5077203;28;20250;-83
2023/03/05 01:30:08;;;;;;;4.70;2.30;;;2.80;1.00;;;;;;5070710;28;20594;-83
2023/03/05 01:32:35;;;;;;;2.97;2.25;;;2.80;99.90;;;;;;5069952;28;20245;-83
2023/03/05 01:35:02;;;;;;;11.73;3.20;;;2.80;99.90;;;;;;5069080;28;20266;-83
2023/03/05 01:37:29;;;;;;;9.18;2.50;;;2.80;1.00;;;;;;5069498;28;20220;-83
2023/03/05 01:39:56;;;;;;;8.00;3.80;;;2.80;1.00;;;;;;5069828;28;20214;-83
2023/03/05 01:42:23;;;;;;;4.03;1.60;;;2.90;1.00;;;;;;5069858;28;20223;-83
2023/03/05 01:45:11;;;;;;;6.75;2.42;;;2.90;99.90;;;;;;5069960;28;20263;-83
2023/03/05 01:47:38;;;;;;;9.23;3.13;;;2.70;1.00;;;;;;5068745;28;20542;-83
2023/03/05 01:50:09;;;;;;;8.90;3.58;;;5.80;99.90;;;;;;5073481;28;20271;-83
2023/03/05 01:52:38;;;;;;;8.07;2.47;;;2.80;99.90;;;;;;5073946;28;20211;-83
2023/03/05 01:55:08;;;;;;;4.18;1.98;;;2.80;99.90;;;;;;5074756;28;20216;-83
2023/03/05 01:57:38;;;;;;;8.32;2.97;;;2.80;99.90;;;;;;5069247;28;20280;-83
2023/03/05 02:00:12;;;;;;;11.90;3.20;;;2.70;99.90;;;;;;5069097;28;20207;-83
2023/03/05 02:02:39;;;;;;;3.80;1.77;;;2.70;94.40;;;;;;5066670;28;20274;-83
2023/03/05 02:05:09;;;;;;;5.35;2.28;;;2.50;99.90;;;;;;5056833;28;20556;-83
2023/03/05 02:07:38;;;;;;;6.70;2.28;;;2.70;9.20;;;;;;5059756;28;20311;-83
2023/03/05 02:10:16;;;;;;;4.95;2.22;;;2.70;1.00;;;;;;5061262;28;20254;-82
2023/03/05 02:12:43;;;;;;;4.82;1.65;;;2.70;1.00;;;;;;5062717;28;20192;-83
2023/03/05 02:15:12;;;;;;;7.18;1.70;;;2.60;1.00;;;;;;5063469;28;20270;-83
2023/03/05 02:17:39;;;;;;;7.43;2.25;;;2.70;1.00;;;;;;5082124;22;20227;-82
2023/03/05 02:20:09;;;;;;;8.02;2.08;;;2.60;1.00;;;;;;5056087;28;20204;-81
2023/03/05 02:22:37;;;;;;;3.38;2.47;;;2.60;1.00;;;;;;5056093;28;20229;-83
2023/03/05 02:25:14;;;;;;;7.57;3.20;;;2.60;1.00;;;;;;5056255;28;20207;-84
2023/03/05 02:27:42;;;;;;;6.65;2.35;;;2.60;1.00;;;;;;5056465;28;20599;-81
2023/03/05 02:30:11;;;;;;;5.38;2.15;;;2.60;1.00;;;;;;5059771;28;20267;-84
2023/03/05 02:32:38;;;;;;;12.80;3.10;;;2.60;1.00;;;;;;5059751;28;20204;-83
2023/03/05 02:35:05;;;;;;;6.97;2.13;;;2.60;1.00;;;;;;5059711;28;20206;-83
2023/03/05 02:37:32;;;;;;;3.78;2.30;;;2.70;1.00;;;;;;5063517;28;20224;-83
2023/03/05 02:40:01;;;;;;;6.75;2.50;;;2.60;1.00;;;;;;5065323;28;20596;-83
2023/03/05 02:42:29;;;;;;;6.43;2.88;;;2.90;99.90;;;;;;5061557;28;20227;-83
2023/03/05 02:44:56;;;;;;;2.05;1.75;;;2.60;1.00;;;;;;5060338;28;20213;-82
2023/03/05 02:47:23;;;;;;;4.45;1.85;;;2.60;1.00;;;;;;5059657;28;20310;-83
2023/03/05 02:49:50;;;;;;;4.45;1.85;;;2.50;1.00;;;;;;5060806;28;20199;-81
2023/03/05 02:52:17;;;;;;;9.02;2.38;;;2.60;1.00;;;;;;5067724;28;20206;-81
2023/03/05 02:54:43;;;;;;;6.18;2.75;;;2.50;1.00;;;;;;5068271;28;20204;-81
2023/03/05 02:57:12;;;;;;;5.03;2.10;;;2.50;1.00;;;;;;5067631;28;20207;-81
2023/03/05 02:59:38;;;;;;;6.22;2.78;;;2.50;1.00;;;;;;5065256;28;20674;-82
2023/03/05 03:02:05;;;;;;;5.75;2.38;;;2.50;1.00;;;;;;5062612;28;20251;-82
2023/03/05 03:04:32;;;;;;;2.38;1.63;;;2.50;1.00;;;;;;5068096;28;20206;-82
2023/03/05 03:06:59;;;;;;;7.45;2.20;;;2.50;1.00;;;;;;5071839;28;20230;-81
2023/03/05 03:09:26;;;;;;;9.60;2.08;;;2.50;1.00;;;;;;5074322;28;20249;-82
2023/03/05 03:11:53;;;;;;;5.75;2.53;;;2.60;6.40;;;;;;5074223;28;20200;-82
2023/03/05 03:14:21;;;;;;;5.93;2.20;;;2.50;1.00;;;;;;5067974;28;20290;-83
2023/03/05 03:16:49;;;;;;;6.25;2.10;;;2.50;1.00;;;;;;5065241;28;20285;-81
2023/03/05 03:19:15;;;;;;;4.38;1.88;;;2.50;1.00;;;;;;5067720;28;20259;-82
2023/03/05 03:21:42;;;;;;;5.55;1.80;;;2.50;1.00;;;;;;5064277;28;20245;-82
2023/03/05 03:24:09;;;;;;;4.53;2.63;;;2.50;1.00;;;;;;5058937;28;20210;-83
2023/03/05 03:26:36;;;;;;;6.20;1.83;;;2.70;99.90;;;;;;5058174;28;20217;-82
2023/03/05 03:29:03;;;;;;;5.65;2.20;;;2.50;1.00;;;;;;5059032;28;20208;-82
2023/03/05 03:31:31;;;;;;;4.15;2.45;;;2.50;1.00;;;;;;5058375;28;20203;-82
2023/03/05 03:33:58;;;;;;;2.05;1.67;;;2.50;1.00;;;;;;5063036;28;20214;-82
2023/03/05 03:36:25;;;;;;;4.10;2.00;;;2.50;99.90;;;;;;5065875;28;20199;-82
2023/03/05 03:38:51;;;;;;;8.52;2.53;;;2.50;1.00;;;;;;5066569;28;20240;-82
2023/03/05 03:41:19;;;;;;;2.00;1.50;;;2.50;1.00;;;;;;5065593;28;20277;-81
2023/03/05 03:43:45;;;;;;;3.25;2.17;;;2.50;1.00;;;;;;5065425;28;20286;-81
2023/03/05 03:46:12;;;;;;;5.30;2.45;;;2.70;99.90;;;;;;5065099;28;20210;-80
2023/03/05 03:48:40;;;;;;;4.45;1.70;;;2.40;1.00;;;;;;5063006;28;20219;-81
2023/03/05 03:51:08;;;;;;;3.65;2.05;;;2.40;1.00;;;;;;5064833;28;20704;-82
2023/03/05 03:53:35;;;;;;;5.30;2.15;;;2.40;1.00;;;;;;5062380;28;20214;-84
2023/03/05 03:56:02;;;;;;;6.72;3.08;;;2.40;1.00;;;;;;5059640;28;20667;-82
2023/03/05 03:58:29;;;;;;;4.78;2.20;;;2.10;99.90;;;;;;5059089;28;20261;-81
2023/03/05 04:00:56;;;;;;;5.78;1.77;;;2.40;1.00;;;;;;5059131;28;20257;-83
2023/03/05 04:03:23;;;;;;;5.25;2.00;;;2.40;1.00;;;;;;5059128;28;20625;-84
2023/03/05 04:05:51;;;;;;;9.95;1.77;;;2.40;1.00;;;;;;5060523;28;20210;-83
2023/03/05 04:08:18;;;;;;;2.60;1.85;;;2.40;99.90;;;;;;5063934;28;20214;-84
2023/03/05 04:10:44;;;;;;;5.32;2.03;;;2.20;1.00;;;;;;5063235;28;20242;-83
2023/03/05 04:13:11;;;;;;;6.10;2.30;;;2.20;1.00;;;;;;5061862;28;20295;-84
2023/03/05 04:15:38;;;;;;;3.83;2.00;;;2.00;1.00;;;;;;5074617;28;20209;-82
2023/03/05 04:18:05;;;;;;;9.10;2.17;;;2.10;1.00;;;;;;5077682;28;20258;-81
2023/03/05 04:20:32;;;;;;;5.15;2.40;;;2.00;1.00;;;;;;5066901;28;20227;-83
2023/03/05 04:23:00;;;;;;;3.45;1.60;;;1.90;17.50;;;;;;5072516;28;20310;-82
2023/03/05 04:25:27;;;;;;;7.13;2.22;;;1.90;49.40;;;;;;5076329;28;20230;-83
2023/03/05 04:27:54;;;;;;;3.83;1.58;;;1.60;99.90;;;;;;5069514;28;20226;-83
2023/03/05 04:30:20;;;;;;;2.95;1.83;;;1.80;99.90;;;;;;5063503;28;20214;-83
2023/03/05 04:32:48;;;;;;;3.70;1.50;;;;;;;;;;5064005;28;20195;-83
2023/03/05 04:35:14;;;;;;;7.40;2.00;;;1.90;99.90;;;;;;5065902;28;20572;-82
2023/03/05 04:37:41;;;;;;;4.63;2.22;;;1.90;99.90;;;;;;5057964;28;20314;-83
2023/03/05 04:40:11;;;;;;;5.22;3.15;;;1.90;99.90;;;;;;5059637;28;20572;-83
2023/03/05 04:42:38;;;;;;;3.47;1.40;;;1.80;99.90;;;;;;5057649;28;20223;-81
2023/03/05 04:45:06;;;;;;;8.98;1.90;;;1.80;99.90;;;;;;5057973;28;20370;-84
2023/03/05 04:47:34;;;;;;;4.85;1.88;;;2.60;1.00;;;;;;5057143;28;20223;-83
2023/03/05 04:50:00;;;;;;;3.83;1.65;;;1.70;99.90;;;;;;5058620;28;20286;-83
2023/03/05 04:52:27;;;;;;;2.75;1.70;;;1.70;99.90;;;;;;5063342;28;20196;-81
2023/03/05 04:54:54;;;;;;;11.57;2.20;;;1.70;99.90;;;;;;5068501;28;20690;-81
2023/03/05 04:57:22;;;;;;;5.30;2.17;;;1.70;99.90;;;;;;5061710;28;20251;-82
2023/03/05 04:59:49;;;;;;;3.10;1.60;;;2.10;99.90;;;;;;5065979;28;20694;-81
2023/03/05 05:02:16;;;;;;;2.55;1.40;;;1.70;99.90;;;;;;5069157;28;20226;-80
2023/03/05 05:04:44;;;;;;;6.65;1.85;;;1.60;99.90;;;;;;5069647;28;20246;-81
2023/03/05 05:07:11;;;;;;;4.38;2.58;;;1.60;99.90;;;;;;5068929;28;20245;-79
2023/03/05 05:09:39;;;;;;;3.90;1.50;;;1.70;99.90;;;;;;5070474;28;20697;-80
2023/03/05 05:12:06;;;;;;;7.45;1.90;;;1.70;1.00;;;;;;5069276;28;20199;-82
2023/03/05 05:14:35;;;;;;;3.80;2.17;;;1.70;1.00;;;;;;5062385;28;20207;-83
2023/03/05 05:17:03;;;;;;;3.95;1.92;;;1.50;1.00;;;;;;5058592;28;20243;-84
2023/03/05 05:19:30;;;;;;;7.65;2.78;;;1.60;1.00;;;;;;5058711;28;20662;-82
2023/03/05 05:21:57;;;;;;;10.45;2.30;;;1.60;1.00;;;;;;5059046;28;20227;-83
2023/03/05 05:24:24;;;;;;;5.07;1.77;;;1.50;1.00;;;;;;5059219;28;20622;-83
2023/03/05 05:26:53;;;;;;;5.15;2.30;;;1.50;1.00;;;;;;5058264;28;20738;-83
2023/03/05 05:29:20;;;;;;;3.83;2.70;;;1.60;1.00;;;;;;5058455;28;20700;-82
2023/03/05 05:31:49;;;;;;;3.13;2.03;;;1.60;1.00;;;;;;5057322;28;20204;-82
2023/03/05 05:34:16;;;;;;;5.97;3.78;;;1.60;1.00;;;;;;5058259;28;20235;-82
2023/03/05 05:36:43;;;;;;;4.40;2.55;;;1.60;1.00;;;;;;5057218;28;20219;-83
2023/03/05 05:39:10;;;;;;;5.60;2.60;;;1.50;1.00;;;;;;5058794;28;20211;-83
2023/03/05 05:41:37;;;;;;;3.22;2.58;;;1.50;1.00;;;;;;5059353;28;20312;-83
2023/03/05 05:44:04;;;;;;;11.38;4.72;;;1.50;1.00;;;;;;5057857;28;20221;-85
2023/03/05 05:46:31;;;;;;;10.98;3.80;;;1.30;99.90;;;;;;5058210;28;20290;-83
2023/03/05 05:48:59;;;;;;;5.13;3.22;;;1.60;1.00;;;;;;5057772;28;20636;-83
2023/03/05 05:51:26;;;;;;;3.80;2.90;;;1.60;1.00;;;;;;5057363;28;20203;-84
2023/03/05 05:53:53;;;;;;;4.57;1.73;;;1.60;1.00;;;;;;5056490;28;20515;-83
2023/03/05 05:56:20;;;;;;;5.40;1.95;;;1.70;25.70;;;;;;5056336;28;20241;-83
2023/03/05 05:58:48;;;;;;;7.57;2.10;;;1.70;1.00;;;;;;5057315;28;20554;-83
2023/03/05 06:01:17;;;;;;;2.45;2.25;;;1.70;1.00;;;;;;5057622;28;20294;-82
2023/03/05 06:03:45;;;;;;;4.32;1.80;;;1.70;1.00;;;;;;5058725;28;20671;-81
2023/03/05 06:06:15;;;;;;;5.35;2.10;;;1.80;1.00;;;;;;5060275;28;20219;-83
2023/03/05 06:08:42;;;;;;;9.30;1.90;;;1.80;1.00;;;;;;5060521;28;20258;-84
2023/03/05 06:11:09;;;;;;;6.55;1.98;;;1.90;1.00;;;;;;5060187;28;20234;-82
2023/03/05 06:13:36;;;;;;;4.32;2.00;;;1.80;1.00;;;;;;5060570;28;20195;-84
2023/03/05 06:16:05;;;;;;;3.33;1.63;;;1.90;1.00;;;;;;5061061;28;20635;-84
2023/03/05 06:18:33;;;;;;;4.00;2.05;;;1.90;1.00;;;;;;5060887;28;20273;-84
2023/03/05 06:21:03;;;;;;;8.57;2.58;;;1.90;1.00;;;;;;5059804;28;20331;-84
2023/03/05 06:23:33;;;;;;;3.75;2.10;;;1.90;1.00;;;;;;5059831;28;20244;-83
2023/03/05 06:26:01;;;;;;;4.05;1.92;;;1.90;1.00;;;;;;5059483;28;20294;-83
2023/03/05 06:28:28;;;;;;;7.35;2.50;;;1.90;1.00;;;;;;5060562;28;20309;-82
2023/03/05 06:31:01;;;;;;;5.30;2.63;;;2.00;1.00;;;;;;5059963;28;20199;-83
2023/03/05 06:33:28;;;;;;;4.45;2.15;;;2.00;1.00;;;;;;5060366;28;20190;-82
2023/03/05 06:35:55;;;;;;;6.32;2.47;;;2.10;1.00;;;;;;5060164;28;20229;-81
2023/03/05 06:38:23;;;;;;;4.68;2.58;;;2.00;1.00;;;;;;5059379;28;20250;-83
2023/03/05 06:40:51;;;;;;;6.22;2.10;;;2.10;1.00;;;;;;5060700;28;20776;-82
2023/03/05 06:43:18;;;;;;;13.93;6.72;;;2.20;1.00;;;;;;5059377;28;20306;-81
2023/03/05 06:45:45;;;;;;;10.18;2.80;;;2.30;1.00;;;;;;5059433;28;20207;-82
2023/03/05 06:48:12;;;;;;;5.28;2.70;;;2.40;1.00;;;;;;5059726;28;20219;-80
2023/03/05 06:50:39;;;;;;;5.50;3.30;;;2.40;99.90;;;;;;5059576;28;20215;-81
2023/03/05 06:53:06;;;;;;;5.10;2.08;;;2.30;1.00;;;;;;5060516;28;20666;-83
2023/03/05 06:55:38;;;;;;;5.57;2.50;;;2.50;99.90;;;;;;5061394;28;20230;-83
2023/03/05 06:58:07;;;;;;;6.88;2.67;;;2.70;1.00;;;;;;5060045;28;20295;-84
2023/03/05 07:00:34;;;;;;;7.55;2.70;;;2.50;99.90;;;;;;5065727;28;20207;-80
2023/03/05 07:03:01;;;;;;;4.65;1.50;;;2.60;99.90;;;;;;5069721;28;20270;-82
2023/03/05 07:05:28;;;;;;;2.17;1.75;;;2.50;99.90;;;;;;5059653;28;20235;-82
2023/03/05 07:07:55;;;;;;;5.10;2.17;;;2.60;99.90;;;;;;5059745;28;20659;-83
2023/03/05 07:10:22;;;;;;;4.20;1.90;;;2.50;1.00;;;;;;5059300;28;20211;-84
2023/03/05 07:12:49;;;;;;;5.85;2.47;;;2.30;99.90;;;;;;5060124;28;20596;-82
2023/03/05 07:15:17;;;;;;;2.65;2.42;;;2.70;99.90;;;;;;5063155;28;20575;-82
2023/03/05 07:17:44;;;;;;;2.95;1.65;;;2.70;99.90;;;;;;5066733;28;20300;-82
2023/03/05 07:20:11;;;;;;;7.97;1.88;;;2.80;99.90;;;;;;5064420;28;20294;-82
2023/03/05 07:22:39;;;;;;;4.50;2.22;;;2.80;99.90;;;;;;5079260;28;20273;-82
2023/03/05 07:25:07;;;;;;;5.45;2.00;;;2.80;99.90;;;;;;5078385;28;20266;-80
2023/03/05 07:27:35;;;;;;;8.10;1.92;;;2.90;99.90;;;;;;5076924;28;20234;-81
2023/03/05 07:30:02;;;;;;;2.10;1.45;;;2.90;99.90;;;;;;5073025;28;20220;-82
2023/03/05 07:32:31;;;;;;;5.65;1.75;;;3.00;99.90;;;;;;5066652;28;20270;-83
2023/03/05 07:34:59;;;;;;;3.83;1.35;;;3.00;99.90;;;;;;5064182;28;20235;-82
2023/03/05 07:37:26;;;;;;;3.92;2.45;;;2.80;99.90;;;;;;5062225;28;20227;-83
2023/03/05 07:39:53;;;;;;;2.17;2.08;;;2.80;99.90;;;;;;5061723;28;20286;-82
2023/03/05 07:42:19;;;;;;;2.63;1.70;;;2.80;19.20;;;;;;5060933;28;20223;-83
2023/03/05 07:44:46;;;;;;;3.58;1.70;;;2.80;57.00;;;;;;5060552;28;20230;-82
2023/03/05 07:47:13;;;;;;;3.97;1.83;;;2.90;99.20;;;;;;5068207;28;20236;-82
2023/03/05 07:49:42;;;;;;;3.85;1.35;;;3.10;52.50;;;;;;5069353;28;20694;-81
2023/03/05 07:52:14;;;;;;;4.18;1.90;;;3.00;7.20;;;;;;5068123;28;20204;-82
2023/03/05 07:54:41;;;;;;;8.93;3.30;;;;;;;;;;5063948;28;20264;-83
2023/03/05 07:57:08;;;;;;;1.58;1.40;;;3.20;1.00;;;;;;5067678;28;20243;-80
2023/03/05 07:59:35;;;;;;;3.28;1.70;;;3.20;1.00;;;;;;5073126;28;20203;-82
2023/03/05 08:02:02;;;;;;;5.88;1.65;;;3.20;1.00;;;;;;5074138;28;20272;-82
2023/03/05 08:04:30;;;;;;;2.25;1.42;;;3.20;1.00;;;;;;5071822;28;20214;-81
2023/03/05 08:06:59;;;;;;;1.50;1.40;;;3.30;1.00;;;;;;5064920;28;20231;-82
2023/03/05 08:09:25;;;;;;;2.08;1.88;;;3.10;1.00;;;;;;5059174;28;20206;-82
2023/03/05 08:11:52;;;;;;;3.67;2.15;;;3.10;1.00;;;;;;5058578;28;20207;-84
2023/03/05 08:14:19;;;;;;;1.98;1.30;;;3.10;1.00;;;;;;5058488;28;20253;-81
2023/03/05 08:16:49;;;;;;;3.72;2.03;;;3.30;99.90;;;;;;5085852;22;20263;-82
2023/03/05 08:19:16;;;;;;;3.08;1.77;;;3.10;1.00;;;;;;5067644;28;20219;-83
2023/03/05 08:21:43;;;;;;;3.88;2.20;;;;;;;;;;5067154;28;20223;-82
2023/03/05 08:24:12;;;;;;;3.33;1.55;;;3.10;1.00;;;;;;5066192;28;20215;-83
2023/03/05 08:26:41;;;;;;;2.65;1.65;;;3.10;1.00;;;;;;5065789;28;20203;-84
2023/03/05 08:29:09;;;;;;;5.28;1.70;;;4.00;1.00;;;;;;5045829;28;20274;-83
2023/03/05 08:31:36;;;;;;;3.78;1.88;;;3.30;38.60;;;;;;5057481;28;20198;-82
2023/03/05 08:34:04;;;;;;;2.92;1.88;;;3.20;1.00;;;;;;5057101;28;20239;-83
2023/03/05 08:36:31;;;;;;;6.68;2.33;;;3.40;1.00;;;;;;5057262;28;20235;-83
2023/03/05 08:38:59;;;;;;;4.13;1.70;;;3.60;1.00;;;;;;5049367;28;20219;-84
2023/03/05 08:41:27;;;;;;;1.55;1.45;;;3.80;1.00;;;;;;5050877;28;20204;-82
2023/03/05 08:43:54;;;;;;;2.50;1.95;;;4.10;1.00;;;;;;5054146;28;20259;-83
2023/03/05 08:46:21;;;;;;;5.43;1.80;;;4.20;1.00;;;;;;5057935;28;20224;-83
2023/03/05 08:48:48;;;;;;;7.00;2.20;;;4.10;1.00;;;;;;5055186;28;20255;-82
2023/03/05 08:51:17;;;;;;;4.40;1.92;;;4.20;1.00;;;;;;5056876;28;20230;-82
2023/03/05 08:53:44;;;;;;;3.35;2.40;;;3.70;1.00;;;;;;5054998;28;20295;-83
2023/03/05 08:56:12;;;;;;;2.30;1.65;;;3.80;1.00;;;;;;5052804;28;20210;-83
2023/03/05 08:58:41;;;;;;;2.05;1.60;;;3.90;1.00;;;;;;5055454;28;20209;-83
2023/03/05 09:01:08;;;;;;;2.75;1.35;;;3.90;1.00;;;;;;5050459;28;20543;-84
2023/03/05 09:03:35;;;;;;;2.22;1.52;;;4.00;9.40;;;;;;5042349;28;20311;-84
2023/03/05 09:06:04;;;;;;;2.58;1.45;;;3.90;1.00;;;;;;5041396;28;20254;-83
2023/03/05 09:08:31;;;;;;;1.63;1.45;;;3.60;1.00;;;;;;5040304;28;20311;-83
2023/03/05 09:10:58;;;;;;;6.60;4.00;;;4.20;18.30;;;;;;5039621;28;20295;-83
2023/03/05 09:13:25;;;;;;;2.42;1.80;;;4.00;1.00;;;;;;5049383;28;20213;-83
2023/03/05 09:15:58;;;;;;;5.00;1.90;;;4.50;1.00;;;;;;5051344;28;20204;-82
2023/03/05 09:18:25;;;;;;;2.20;1.88;;;4.60;1.00;;;;;;5044994;28;20315;-83
2023/03/05 09:20:52;;;;;;;2.13;1.13;;;4.60;1.00;;;;;;5046891;28;20227;-82
2023/03/05 09:23:19;;;;;;;5.53;1.85;;;4.50;1.00;;;;;;5051519;28;20300;-82
2023/03/05 09:25:45;;;;;;;7.15;2.05;;;4.50;1.00;;;;;;5047516;28;20207;-83
2023/03/05 09:28:12;;;;;;;5.43;2.15;;;4.20;1.00;;;;;;5041813;28;20284;-83
2023/03/05 09:30:39;;;;;;;2.72;1.67;;;4.00;1.00;;;;;;5039781;28;20204;-83
2023/03/05 09:33:08;;;;;;;3.70;2.00;;;4.20;1.00;;;;;;5039518;28;20516;-83
2023/03/05 09:35:36;;;;;;;3.85;2.50;;;4.10;1.00;;;;;;5039272;28;20203;-82
2023/03/05 09:38:03;;;;;;;5.13;1.80;;;3.90;1.00;;;;;;5041458;28;20228;-82
2023/03/05 09:40:37;;;;;;;2.75;2.55;;;4.70;8.70;;;;;;5043356;28;20343;-83
2023/03/05 09:43:14;;;;;;;2.45;1.50;;;4.00;1.00;;;;;;5043611;28;20207;-82
2023/03/05 09:45:55;;;;;;;2.65;1.50;;;4.30;1.00;;;;;;5045609;28;20604;-82
2023/03/05 09:48:32;;;;;;;5.93;2.05;;;4.10;1.00;;;;;;5050375;28;20227;-83
2023/03/05 09:51:01;;;;;;;2.05;1.70;;;4.20;1.00;;;;;;5058814;28;20196;-82
2023/03/05 09:53:38;;;;;;;1.58;1.48;;;4.20;1.00;;;;;;5056588;28;20200;-82
2023/03/05 09:56:11;;;;;;;3.45;1.60;;;4.20;1.00;;;;;;5053867;28;20193;-83
2023/03/05 09:58:40;;;;;;;3.70;2.35;;;4.40;1.00;;;;;;5045010;28;20250;-83
2023/03/05 10:01:10;;;;;;;2.10;1.90;;;4.40;1.00;;;;;;5043440;28;20236;-83
2023/03/05 10:03:50;;;;;;;2.20;2.00;;;4.50;1.00;;;;;;5042872;28;20225;-83
2023/03/05 10:06:22;;;;;;;2.20;1.58;;;4.40;1.00;;;;;;5042037;28;20184;-83
2023/03/05 10:08:55;;;;;;;4.88;2.10;;;4.30;1.00;;;;;;5041745;28;20263;-83
2023/03/05 10:11:39;;;;;;;3.13;2.83;;;4.10;1.00;;;;;;5042346;28;20196;-83
2023/03/05 10:14:12;;;;;;;3.92;2.30;;;4.20;1.00;;;;;;5042085;28;20188;-82
2023/03/05 10:17:02;;;;;;;6.65;2.50;;;4.30;1.00;;;;;;5041792;28;20199;-82
2023/03/05 10:20:03;;;;;;;5.10;2.63;;;4.00;1.00;;;;;;5011717;28;20232;-82
2023/03/05 10:22:38;;;;;;;3.40;2.00;;;4.10;1.00;;;;;;5053545;28;20189;-82
2023/03/05 10:25:18;;;;;;;2.67;2.30;;;4.10;1.00;;;;;;5054915;28;20216;-83
2023/03/05 10:27:49;;;;;;;8.07;1.90;;;3.80;1.00;;;;;;5055205;28;20220;-83
2023/03/05 10:30:37;;;;;;;2.80;2.20;;;3.80;1.00;;;;;;5056358;28;20219;-82
2023/03/05 10:33:15;;;;;;;3.17;2.40;;;3.80;1.00;;;;;;5056446;28;20192;-83
2023/03/05 10:36:30;;;;;;;2.60;2.08;;;3.80;1.00;;;;;;5057248;28;20236;-83
2023/03/05 10:39:32;;;;;;;4.80;2.70;;;4.10;1.00;;;;;;5048281;28;20726;-83
2023/03/05 10:42:07;;;;;;;7.90;3.10;;;3.80;1.00;;;;;;5049607;28;20283;-84
2023/03/05 10:44:38;;;;;;;2.80;2.45;;;4.00;1.00;;;;;;5044937;28;20219;-83
2023/03/05 10:47:13;;;;;;;2.00;1.90;;;3.70;1.00;;;;;;5044085;28;20314;-83
2023/03/05 10:49:48;;;;;;;6.63;2.47;;;3.70;1.00;;;;;;5044411;28;20189;-83
2023/03/05 10:52:20;;;;;;;5.00;2.35;;;3.70;1.00;;;;;;5044275;28;20227;-84
2023/03/05 10:54:48;;;;;;;4.63;2.00;;;3.70;99.90;;;;;;5044771;28;20185;-83
2023/03/05 10:57:18;;;;;;;7.78;2.00;;;3.30;1.00;;;;;;5053837;28;20225;-83
2023/03/05 10:59:49;;;;;;;9.13;4.60;;;3.40;1.00;;;;;;5043060;28;20200;-83
2023/03/05 11:02:17;;;;;;;2.80;2.30;;;3.20;1.00;;;;;;5042863;28;20202;-83
2023/03/05 11:04:46;;;;;;;3.22;2.58;;;3.80;1.00;;;;;;5042966;28;20666;-83
2023/03/05 11:07:36;;;;;;;3.97;2.20;;;3.10;1.00;;;;;;5043770;28;20278;-83
2023/03/05 11:10:13;;;;;;;3.83;2.58;;;3.30;1.00;;;;;;5043666;28;20220;-83
2023/03/05 11:12:40;;;;;;;2.40;2.20;;;3.40;99.90;;;;;;5042721;28;20558;-83
2023/03/05 11:15:29;;;;;;;2.72;2.20;;;3.30;94.00;;;;;;5042591;28;20288;-84
2023/03/05 11:18:19;;;;;;;2.40;2.30;;;3.40;1.00;;;;;;5042883;28;20240;-83
2023/03/05 11:20:47;;;;;;;3.67;2.05;;;3.30;1.00;;;;;;5043328;28;20232;-83
2023/03/05 11:23:17;;;;;;;6.88;1.88;;;3.40;1.00;;;;;;5051410;28;20268;-84
2023/03/05 11:26:01;;;;;;;6.32;2.88;;;3.60;1.00;;;;;;5047564;28;20255;-83
2023/03/05 11:28:32;;;;;;;2.47;2.28;;;3.90;1.00;;;;;;5049418;28;20223;-83
2023/03/05 11:31:02;;;;;;;4.88;2.05;;;4.00;1.00;;;;;;5045390;28;20228;-84
2023/03/05 11:33:30;;;;;;;3.30;3.00;;;4.00;1.00;;;;;;5043021;28;20649;-83
2023/03/05 11:36:22;;;;;;;3.08;2.85;;;3.90;1.00;;;;;;5043147;28;20218;-83
2023/03/05 11:38:54;;;;;;;5.38;2.10;;;3.90;54.50;;;;;;5041990;28;20314;-84
2023/03/05 11:41:26;;;;;;;4.65;1.92;;;4.00;1.00;;;;;;5042588;28;20279;-84
2023/03/05 11:43:54;;;;;;;3.03;1.90;;;4.40;1.00;;;;;;5041590;28;20250;-84
2023/03/05 11:46:22;;;;;;;4.88;2.70;;;4.10;1.00;;;;;;5042564;28;20208;-84
2023/03/05 11:48:50;;;;;;;2.55;2.00;;;4.20;1.00;;;;;;5045695;28;20227;-83
2023/03/05 11:51:22;;;;;;;5.65;3.05;;;4.00;1.00;;;;;;5045700;28;20204;-83
2023/03/05 11:53:55;;;;;;;4.70;2.70;;;4.30;43.80;;;;;;5044703;28;20191;-83
2023/03/05 11:56:35;;;;;;;5.78;2.03;;;4.20;1.00;;;;;;5043597;28;20644;-82
2023/03/05 11:59:07;;;;;;;6.80;2.45;;;4.40;1.00;;;;;;5041366;28;20255;-82
2023/03/05 12:01:39;;;;;;;4.38;2.28;;;4.20;1.00;;;;;;5042154;28;20225;-83
2023/03/05 12:04:07;;;;;;;3.63;2.65;;;4.40;1.00;;;;;;5042580;28;20256;-82
2023/03/05 12:06:39;;;;;;;3.03;2.00;;;4.50;1.00;;;;;;5046316;28;20273;-83
2023/03/05 12:09:15;;;;;;;4.78;2.10;;;4.60;1.00;;;;;;5049837;28;20212;-83
2023/03/05 12:11:43;;;;;;;3.20;2.03;;;;;;;;;;5054868;28;20180;-82
2023/03/05 12:14:20;;;;;;;4.40;1.92;;;4.40;1.00;;;;;;5058737;28;20232;-81
2023/03/05 12:16:52;;;;;;;2.88;2.63;;;4.20;58.20;;;;;;5058702;28;20193;-84
2023/03/05 12:19:37;;;;;;;3.58;2.60;;;4.10;1.00;;;;;;5042527;28;20220;-82
2023/03/05 12:22:14;;;;;;;6.95;2.60;;;4.10;99.90;;;;;;5043680;28;20203;-82
2023/03/05 12:24:42;;;;;;;1.98;1.88;;;4.00;1.00;;;;;;5045522;28;20254;-83
2023/03/05 12:27:13;;;;;;;9.20;2.42;;;4.10;1.00;;;;;;5045777;28;20228;-83
2023/03/05 12:29:45;;;;;;;6.03;2.55;;;4.30;1.00;;;;;;5047156;28;20191;-83
2023/03/05 12:32:59;;;;;;;1.90;1.80;;;4.00;1.00;;;;;;5048777;28;20208;-82
2023/03/05 12:35:29;;;;;;;4.38;2.55;;;4.30;1.00;;;;;;5046445;28;20197;-81
2023/03/05 12:38:18;;;;;;;4.45;2.58;;;4.50;1.00;;;;;;5047474;28;20228;-82
2023/03/05 12:40:46;;;;;;;2.65;2.13;;;4.50;1.00;;;;;;5046952;28;20200;-82
2023/03/05 12:43:31;;;;;;;2.95;2.65;;;4.50;1.00;;;;;;5041251;28;20255;-83
2023/03/05 12:46:23;;;;;;;4.38;2.83;;;4.50;1.00;;;;;;5040678;28;20294;-83
2023/03/05 12:48:49;;;;;;;5.53;2.63;;;4.50;1.00;;;;;;5040045;28;20226;-84
2023/03/05 12:51:38;;;;;;;2.47;2.28;;;4.40;1.00;;;;;;5040879;28;20286;-83
2023/03/05 12:54:28;;;;;;;2.53;2.33;;;4.60;1.00;;;;;;5037657;28;20731;-84
2023/03/05 12:56:58;;;;;;;2.50;2.30;;;4.20;1.00;;;;;;5038864;28;20188;-84
2023/03/05 12:59:31;;;;;;;5.70;2.65;;;4.40;1.00;;;;;;5046856;28;20264;-84
2023/03/05 13:02:03;;;;;;;4.28;2.70;;;4.70;1.00;;;;;;5058700;28;20249;-83
2023/03/05 13:04:32;;;;;;;3.55;2.30;;;4.50;1.00;;;;;;5043682;28;20217;-83
2023/03/05 13:07:01;;;;;;;3.20;2.83;;;4.20;1.00;;;;;;5048351;28;20208;-83
2023/03/05 13:09:31;;;;;;;2.40;2.20;;;4.30;1.00;;;;;;5049390;28;20216;-84
2023/03/05 13:12:00;;;;;;;2.65;1.90;;;4.20;1.00;;;;;;5048521;28;20636;-83
2023/03/05 13:14:36;;;;;;;3.20;2.15;;;4.50;1.00;;;;;;5046099;28;20201;-83
2023/03/05 13:17:34;;;;;;;5.75;2.17;;;4.60;1.00;;;;;;5050841;28;20280;-83
2023/03/05 13:20:06;;;;;;;2.65;1.67;;;4.90;1.00;;;;;;5053722;28;20193;-83